Terminal Aerodrome Forecast
Issued by NWS Lake Charles, LA

Home | Current Version | Previous Version | Text Only | Print | Product List | Glossary On
Versions: 1 2 3 4 5 6 7 8 9 10 11 12
101
FTUS44 KLCH 141720
TAFAEX
TAF
KAEX 141720Z 1418/1518 VRB04KT P6SM BKN250
     FM142000 34006KT P6SM SCT100 BKN250=

USA.gov is the U.S. government's official web portal to all federal, state and local government web resources and services.